sensor_id;sensor_type;location;lat;lon;timestamp;pressure;altitude;pressure_sealevel;temperature;humidity
61119;BME280;51448;51.660;5.824;2023-03-04T00:00:30;102518.44;;;5.31;85.16
61119;BME280;51448;51.660;5.824;2023-03-04T00:02:58;102529.78;;;5.31;85.02
61119;BME280;51448;51.660;5.824;2023-03-04T00:05:26;102521.91;;;5.30;84.98
61119;BME280;51448;51.660;5.824;2023-03-04T00:07:53;102521.03;;;5.29;84.72
61119;BME280;51448;51.660;5.824;2023-03-04T00:10:21;102530.63;;;5.30;85.02
61119;BME280;51448;51.660;5.824;2023-03-04T00:12:48;102524.53;;;5.30;84.87
61119;BME280;51448;51.660;5.824;2023-03-04T00:15:16;102517.56;;;5.30;84.55
61119;BME280;51448;51.660;5.824;2023-03-04T00:17:43;102531.47;;;5.31;84.50
61119;BME280;51448;51.660;5.824;2023-03-04T00:20:12;102521.88;;;5.28;85.46
61119;BME280;51448;51.660;5.824;2023-03-04T00:22:40;102521.88;;;5.28;84.59
61119;BME280;51448;51.660;5.824;2023-03-04T00:25:08;102529.66;;;5.27;84.63
61119;BME280;51448;51.660;5.824;2023-03-04T00:27:36;102511.38;;;5.25;84.84
61119;BME280;51448;51.660;5.824;2023-03-04T00:30:04;102518.31;;;5.24;84.85
61119;BME280;51448;51.660;5.824;2023-03-04T00:32:33;102514.88;;;5.26;83.98
61119;BME280;51448;51.660;5.824;2023-03-04T00:35:03;102519.22;;;5.27;84.08
61119;BME280;51448;51.660;5.824;2023-03-04T00:37:32;102507.09;;;5.27;84.38
61119;BME280;51448;51.660;5.824;2023-03-04T00:39:59;102517.53;;;5.29;84.57
61119;BME280;51448;51.660;5.824;2023-03-04T00:42:27;102514.03;;;5.28;84.99
61119;BME280;51448;51.660;5.824;2023-03-04T00:44:55;102517.53;;;5.27;84.54
61119;BME280;51448;51.660;5.824;2023-03-04T00:47:22;102510.53;;;5.26;84.56
61119;BME280;51448;51.660;5.824;2023-03-04T00:49:50;102512.25;;;5.26;84.79
61119;BME280;51448;51.660;5.824;2023-03-04T00:52:17;102510.50;;;5.24;85.13
61119;BME280;51448;51.660;5.824;2023-03-04T00:54:45;102512.22;;;5.24;84.33
61119;BME280;51448;51.660;5.824;2023-03-04T00:57:12;102521.78;;;5.23;84.27
61119;BME280;51448;51.660;5.824;2023-03-04T00:59:40;102510.50;;;5.24;84.79
61119;BME280;51448;51.660;5.824;2023-03-04T01:02:09;102516.56;;;5.23;84.23
61119;BME280;51448;51.660;5.824;2023-03-04T01:04:37;102519.19;;;5.23;83.74
61119;BME280;51448;51.660;5.824;2023-03-04T01:07:05;102511.38;;;5.25;83.65
61119;BME280;51448;51.660;5.824;2023-03-04T01:09:33;102517.47;;;5.26;84.22
61119;BME280;51448;51.660;5.824;2023-03-04T01:12:02;102513.13;;;5.26;84.05
61119;BME280;51448;51.660;5.824;2023-03-04T01:14:30;102512.25;;;5.26;84.18
61119;BME280;51448;51.660;5.824;2023-03-04T01:16:58;102521.84;;;5.27;84.58
61119;BME280;51448;51.660;5.824;2023-03-04T01:19:25;102521.00;;;5.28;84.60
61119;BME280;51448;51.660;5.824;2023-03-04T01:21:53;102515.75;;;5.26;84.80
61119;BME280;51448;51.660;5.824;2023-03-04T01:24:21;102516.59;;;5.25;84.17
61119;BME280;51448;51.660;5.824;2023-03-04T01:26:49;102511.38;;;5.25;85.04
61119;BME280;51448;51.660;5.824;2023-03-04T01:29:16;102508.78;;;5.25;84.46
61119;BME280;51448;51.660;5.824;2023-03-04T01:31:44;102514.88;;;5.26;85.21
61119;BME280;51448;51.660;5.824;2023-03-04T01:34:12;102518.34;;;5.26;84.93
61119;BME280;51448;51.660;5.824;2023-03-04T01:36:39;102507.88;;;5.24;84.82
61119;BME280;51448;51.660;5.824;2023-03-04T01:39:07;102498.31;;;5.23;84.72
61119;BME280;51448;51.660;5.824;2023-03-04T01:41:35;102510.47;;;5.23;85.16
61119;BME280;51448;51.660;5.824;2023-03-04T01:44:03;102503.47;;;5.22;84.71
61119;BME280;51448;51.660;5.824;2023-03-04T01:46:31;102500.88;;;5.22;84.93
61119;BME280;51448;51.660;5.824;2023-03-04T01:48:59;102491.31;;;5.21;85.72
61119;BME280;51448;51.660;5.824;2023-03-04T01:51:26;102488.66;;;5.19;85.72
61119;BME280;51448;51.660;5.824;2023-03-04T01:53:54;102492.13;;;5.20;85.21
61119;BME280;51448;51.660;5.824;2023-03-04T01:56:33;102489.53;;;5.20;85.47
61119;BME280;51448;51.660;5.824;2023-03-04T01:59:09;102489.50;;;5.18;85.34
61119;BME280;51448;51.660;5.824;2023-03-04T02:01:38;102487.72;;;5.16;85.25
61119;BME280;51448;51.660;5.824;2023-03-04T02:04:07;102482.50;;;5.16;84.61
61119;BME280;51448;51.660;5.824;2023-03-04T02:06:37;102475.53;;;5.16;85.46
61119;BME280;51448;51.660;5.824;2023-03-04T02:09:07;102472.94;;;5.16;84.68
61119;BME280;51448;51.660;5.824;2023-03-04T02:11:36;102472.09;;;5.17;85.44
61119;BME280;51448;51.660;5.824;2023-03-04T02:14:05;102467.72;;;5.16;85.45
61119;BME280;51448;51.660;5.824;2023-03-04T02:16:33;102468.63;;;5.17;85.61
61119;BME280;51448;51.660;5.824;2023-03-04T02:19:04;102462.50;;;5.16;85.21
61119;BME280;51448;51.660;5.824;2023-03-04T02:21:35;102464.22;;;5.16;85.33
61119;BME280;51448;51.660;5.824;2023-03-04T02:24:30;102463.41;;;5.18;86.04
61119;BME280;51448;51.660;5.824;2023-03-04T02:27:03;102459.00;;;5.16;85.52
61119;BME280;51448;51.660;5.824;2023-03-04T02:29:31;102457.28;;;5.16;86.05
61119;BME280;51448;51.660;5.824;2023-03-04T02:31:59;102454.66;;;5.16;85.84
61119;BME280;51448;51.660;5.824;2023-03-04T02:34:32;102455.56;;;5.17;85.79
61119;BME280;51448;51.660;5.824;2023-03-04T02:37:02;102452.06;;;5.16;86.26
61119;BME280;51448;51.660;5.824;2023-03-04T02:39:35;102459.94;;;5.18;85.99
61119;BME280;51448;51.660;5.824;2023-03-04T02:42:07;102450.31;;;5.15;85.87
61119;BME280;51448;51.660;5.824;2023-03-04T02:44:41;102447.72;;;5.15;86.06
61119;BME280;51448;51.660;5.824;2023-03-04T02:47:14;102443.31;;;5.14;86.35
61119;BME280;51448;51.660;5.824;2023-03-04T02:49:48;102437.19;;;5.12;86.60
61119;BME280;51448;51.660;5.824;2023-03-04T02:52:24;102442.41;;;5.12;85.94
61119;BME280;51448;51.660;5.824;2023-03-04T02:54:52;102444.16;;;5.12;86.70
61119;BME280;51448;51.660;5.824;2023-03-04T02:57:20;102444.19;;;5.13;86.39
61119;BME280;51448;51.660;5.824;2023-03-04T02:59:52;102431.16;;;5.13;86.12
61119;BME280;51448;51.660;5.824;2023-03-04T03:02:22;102430.28;;;5.14;86.53
61119;BME280;51448;51.660;5.824;2023-03-04T03:04:50;102435.50;;;5.14;86.30
61119;BME280;51448;51.660;5.824;2023-03-04T03:07:20;102441.63;;;5.15;86.33
61119;BME280;51448;51.660;5.824;2023-03-04T03:09:48;102434.63;;;5.14;86.73
61119;BME280;51448;51.660;5.824;2023-03-04T03:12:17;102425.06;;;5.13;86.90
61119;BME280;51448;51.660;5.824;2023-03-04T03:14:45;102429.41;;;5.14;86.95
61119;BME280;51448;51.660;5.824;2023-03-04T03:17:16;102425.94;;;5.13;86.77
61119;BME280;51448;51.660;5.824;2023-03-04T03:19:44;102425.94;;;5.13;87.37
61119;BME280;51448;51.660;5.824;2023-03-04T03:22:11;102415.53;;;5.15;87.75
61119;BME280;51448;51.660;5.824;2023-03-04T03:24:39;102424.19;;;5.14;87.40
61119;BME280;51448;51.660;5.824;2023-03-04T03:27:06;102423.31;;;5.13;87.47
61119;BME280;51448;51.660;5.824;2023-03-04T03:29:34;102414.59;;;5.11;87.68
61119;BME280;51448;51.660;5.824;2023-03-04T03:32:02;102425.03;;;5.11;87.22
61119;BME280;51448;51.660;5.824;2023-03-04T03:34:29;102410.19;;;5.10;87.25
61119;BME280;51448;51.660;5.824;2023-03-04T03:36:57;102412.81;;;5.10;87.91
61119;BME280;51448;51.660;5.824;2023-03-04T03:39:24;102425.03;;;5.11;87.80
61119;BME280;51448;51.660;5.824;2023-03-04T03:41:52;102416.31;;;5.11;87.15
61119;BME280;51448;51.660;5.824;2023-03-04T03:44:20;102414.56;;;5.10;87.78
61119;BME280;51448;51.660;5.824;2023-03-04T03:46:47;102421.50;;;5.09;87.03
61119;BME280;51448;51.660;5.824;2023-03-04T03:49:15;102409.34;;;5.10;87.03
61119;BME280;51448;51.660;5.824;2023-03-04T03:51:43;102415.41;;;5.09;87.46
61119;BME280;51448;51.660;5.824;2023-03-04T03:54:10;102411.94;;;5.10;87.02
61119;BME280;51448;51.660;5.824;2023-03-04T03:56:38;102409.38;;;5.11;87.76
61119;BME280;51448;51.660;5.824;2023-03-04T03:59:06;102406.75;;;5.11;87.35
61119;BME280;51448;51.660;5.824;2023-03-04T04:01:33;102413.69;;;5.09;87.11
61119;BME280;51448;51.660;5.824;2023-03-04T04:04:01;102413.72;;;5.11;87.14
61119;BME280;51448;51.660;5.824;2023-03-04T04:06:29;102407.59;;;5.10;87.91
61119;BME280;51448;51.660;5.824;2023-03-04T04:08:56;102418.06;;;5.12;87.87
61119;BME280;51448;51.660;5.824;2023-03-04T04:11:24;102412.84;;;5.12;87.77
61119;BME280;51448;51.660;5.824;2023-03-04T04:13:51;102413.72;;;5.12;87.29
61119;BME280;51448;51.660;5.824;2023-03-04T04:16:19;102412.84;;;5.12;88.06
61119;BME280;51448;51.660;5.824;2023-03-04T04:18:47;102414.63;;;5.13;87.62
61119;BME280;51448;51.660;5.824;2023-03-04T04:21:14;102411.13;;;5.12;88.08
61119;BME280;51448;51.660;5.824;2023-03-04T04:23:42;102416.38;;;5.14;87.76
61119;BME280;51448;51.660;5.824;2023-03-04T04:26:09;102417.25;;;5.14;87.61
61119;BME280;51448;51.660;5.824;2023-03-04T04:28:37;102419.84;;;5.14;88.08
61119;BME280;51448;51.660;5.824;2023-03-04T04:31:07;102416.41;;;5.15;88.07
61119;BME280;51448;51.660;5.824;2023-03-04T04:33:36;102415.53;;;5.15;88.04
61119;BME280;51448;51.660;5.824;2023-03-04T04:36:04;102417.25;;;5.14;87.63
61119;BME280;51448;51.660;5.824;2023-03-04T04:38:32;102412.88;;;5.13;87.77
61119;BME280;51448;51.660;5.824;2023-03-04T04:40:59;102416.38;;;5.14;87.71
61119;BME280;51448;51.660;5.824;2023-03-04T04:43:27;102417.25;;;5.14;88.16
61119;BME280;51448;51.660;5.824;2023-03-04T04:45:55;102414.63;;;5.14;87.54
61119;BME280;51448;51.660;5.824;2023-03-04T04:48:25;102419.00;;;5.15;87.69
61119;BME280;51448;51.660;5.824;2023-03-04T04:50:54;102422.47;;;5.14;88.00
61119;BME280;51448;51.660;5.824;2023-03-04T04:53:22;102419.84;;;5.14;87.48
61119;BME280;51448;51.660;5.824;2023-03-04T04:55:50;102413.81;;;5.15;88.03
61119;BME280;51448;51.660;5.824;2023-03-04T04:58:17;102411.19;;;5.15;87.92
61119;BME280;51448;51.660;5.824;2023-03-04T05:00:45;102423.38;;;5.16;87.96
61119;BME280;51448;51.660;5.824;2023-03-04T05:03:12;102419.84;;;5.14;88.03
61119;BME280;51448;51.660;5.824;2023-03-04T05:05:41;102430.28;;;5.14;87.64
61119;BME280;51448;51.660;5.824;2023-03-04T05:08:08;102425.06;;;5.14;87.73
61119;BME280;51448;51.660;5.824;2023-03-04T05:10:36;102427.66;;;5.13;87.52
61119;BME280;51448;51.660;5.824;2023-03-04T05:13:04;102424.16;;;5.11;87.96
61119;BME280;51448;51.660;5.824;2023-03-04T05:15:31;102424.13;;;5.09;87.64
61119;BME280;51448;51.660;5.824;2023-03-04T05:17:59;102424.94;;;5.08;87.62
61119;BME280;51448;51.660;5.824;2023-03-04T05:20:26;102425.81;;;5.07;87.40
61119;BME280;51448;51.660;5.824;2023-03-04T05:22:54;102426.63;;;5.06;87.36
61119;BME280;51448;51.660;5.824;2023-03-04T05:25:22;102419.69;;;5.05;88.12
61119;BME280;51448;51.660;5.824;2023-03-04T05:27:49;102426.63;;;5.06;87.95
61119;BME280;51448;51.660;5.824;2023-03-04T05:30:17;102426.63;;;5.06;87.74
61119;BME280;51448;51.660;5.824;2023-03-04T05:32:44;102419.69;;;5.05;87.89
61119;BME280;51448;51.660;5.824;2023-03-04T05:35:12;102420.50;;;5.04;87.87
61119;BME280;51448;51.660;5.824;2023-03-04T05:37:40;102412.69;;;5.04;87.85
61119;BME280;51448;51.660;5.824;2023-03-04T05:40:08;102424.84;;;5.03;88.35
61119;BME280;51448;51.660;5.824;2023-03-04T05:42:37;102425.72;;;5.04;88.24
61119;BME280;51448;51.660;5.824;2023-03-04T05:45:05;102423.94;;;5.01;88.59
61119;BME280;51448;51.660;5.824;2023-03-04T05:47:33;102425.66;;;4.99;88.61
61119;BME280;51448;51.660;5.824;2023-03-04T05:50:00;102430.81;;;4.98;88.38
61119;BME280;51448;51.660;5.824;2023-03-04T05:52:28;102432.56;;;4.97;88.71
61119;BME280;51448;51.660;5.824;2023-03-04T05:54:55;102431.72;;;4.98;88.91
61119;BME280;51448;51.660;5.824;2023-03-04T05:57:23;102429.13;;;4.98;88.88
61119;BME280;51448;51.660;5.824;2023-03-04T05:59:51;102428.22;;;4.98;88.71
61119;BME280;51448;51.660;5.824;2023-03-04T06:02:18;102429.13;;;4.98;88.63
61119;BME280;51448;51.660;5.824;2023-03-04T06:04:46;102430.00;;;4.99;88.94
61119;BME280;51448;51.660;5.824;2023-03-04T06:07:14;102433.47;;;4.99;88.93
61119;BME280;51448;51.660;5.824;2023-03-04T06:09:41;102430.88;;;4.99;89.29
61119;BME280;51448;51.660;5.824;2023-03-04T06:12:11;102433.47;;;4.99;88.96
61119;BME280;51448;51.660;5.824;2023-03-04T06:14:39;102429.13;;;4.98;89.34
61119;BME280;51448;51.660;5.824;2023-03-04T06:17:07;102437.81;;;4.99;88.87
61119;BME280;51448;51.660;5.824;2023-03-04T06:19:34;102437.81;;;4.99;89.30
61119;BME280;51448;51.660;5.824;2023-03-04T06:22:04;102439.56;;;4.98;88.66
61119;BME280;51448;51.660;5.824;2023-03-04T06:24:31;102441.28;;;4.99;89.22
61119;BME280;51448;51.660;5.824;2023-03-04T06:26:59;102441.25;;;4.98;89.08
61119;BME280;51448;51.660;5.824;2023-03-04T06:29:27;102440.41;;;4.99;88.96
61119;BME280;51448;51.660;5.824;2023-03-04T06:31:55;102440.41;;;4.99;89.18
61119;BME280;51448;51.660;5.824;2023-03-04T06:34:23;102444.78;;;5.00;89.20
61119;BME280;51448;51.660;5.824;2023-03-04T06:36:50;102450.00;;;5.00;89.07
61119;BME280;51448;51.660;5.824;2023-03-04T06:39:18;102442.16;;;5.00;88.86
61119;BME280;51448;51.660;5.824;2023-03-04T06:41:45;102458.72;;;5.00;89.20
61119;BME280;51448;51.660;5.824;2023-03-04T06:44:13;102438.72;;;5.01;89.03
61119;BME280;51448;51.660;5.824;2023-03-04T06:46:41;102446.53;;;5.01;89.42
61119;BME280;51448;51.660;5.824;2023-03-04T06:49:09;102445.69;;;5.02;88.99
61119;BME280;51448;51.660;5.824;2023-03-04T06:51:36;102455.25;;;5.01;88.76
61119;BME280;51448;51.660;5.824;2023-03-04T06:54:04;102452.69;;;5.03;89.24
61119;BME280;51448;51.660;5.824;2023-03-04T06:56:31;102444.81;;;5.01;89.66
61119;BME280;51448;51.660;5.824;2023-03-04T06:58:59;102450.91;;;5.02;89.79
61119;BME280;51448;51.660;5.824;2023-03-04T07:01:27;102462.22;;;5.02;89.50
61119;BME280;51448;51.660;5.824;2023-03-04T07:03:56;102456.13;;;5.02;89.10
61119;BME280;51448;51.660;5.824;2023-03-04T07:06:26;102452.69;;;5.03;89.96
61119;BME280;51448;51.660;5.824;2023-03-04T07:08:55;102455.31;;;5.04;89.98
61119;BME280;51448;51.660;5.824;2023-03-04T07:11:23;102457.06;;;5.06;89.49
61119;BME280;51448;51.660;5.824;2023-03-04T07:13:51;102457.09;;;5.07;89.79
61119;BME280;51448;51.660;5.824;2023-03-04T07:16:21;102451.94;;;5.09;89.58
61119;BME280;51448;51.660;5.824;2023-03-04T07:18:49;102461.50;;;5.10;89.84
61119;BME280;51448;51.660;5.824;2023-03-04T07:21:17;102458.97;;;5.13;89.77
61119;BME280;51448;51.660;5.824;2023-03-04T07:23:46;102459.84;;;5.13;90.13
61119;BME280;51448;51.660;5.824;2023-03-04T07:26:13;102458.13;;;5.15;90.15
61119;BME280;51448;51.660;5.824;2023-03-04T07:28:41;102461.66;;;5.17;90.40
61119;BME280;51448;51.660;5.824;2023-03-04T07:31:24;102468.69;;;5.21;90.69
61119;BME280;51448;51.660;5.824;2023-03-04T07:33:58;102469.53;;;5.20;90.56
61119;BME280;51448;51.660;5.824;2023-03-04T07:36:28;102474.78;;;5.22;90.12
61119;BME280;51448;51.660;5.824;2023-03-04T07:38:56;102474.88;;;5.25;89.93
61119;BME280;51448;51.660;5.824;2023-03-04T07:41:26;102481.91;;;5.29;90.38
61119;BME280;51448;51.660;5.824;2023-03-04T07:43:57;102477.59;;;5.33;90.31
61119;BME280;51448;51.660;5.824;2023-03-04T07:46:25;102480.22;;;5.33;90.33
61119;BME280;51448;51.660;5.824;2023-03-04T07:48:54;102487.25;;;5.35;90.34
61119;BME280;51448;51.660;5.824;2023-03-04T07:51:24;102486.41;;;5.38;90.30
61119;BME280;51448;51.660;5.824;2023-03-04T07:53:55;102474.28;;;5.40;90.43
61119;BME280;51448;51.660;5.824;2023-03-04T07:56:27;102493.47;;;5.42;90.64
61119;BME280;51448;51.660;5.824;2023-03-04T07:58:57;102483.91;;;5.42;89.94
61119;BME280;51448;51.660;5.824;2023-03-04T08:01:29;102484.81;;;5.44;90.69
61119;BME280;51448;51.660;5.824;2023-03-04T08:03:59;102484.84;;;5.46;90.57
61119;BME280;51448;51.660;5.824;2023-03-04T08:06:27;102486.66;;;5.50;90.48
61119;BME280;51448;51.660;5.824;2023-03-04T08:08:57;102488.47;;;5.54;90.71
61119;BME280;51448;51.660;5.824;2023-03-04T08:11:28;102494.66;;;5.58;91.04
61119;BME280;51448;51.660;5.824;2023-03-04T08:13:57;102497.34;;;5.62;90.72
61119;BME280;51448;51.660;5.824;2023-03-04T08:16:25;102491.31;;;5.67;90.98
61119;BME280;51448;51.660;5.824;2023-03-04T08:18:56;102503.66;;;5.75;90.57
61119;BME280;51448;51.660;5.824;2023-03-04T08:21:27;102489.03;;;5.85;90.76
61119;BME280;51448;51.660;5.824;2023-03-04T08:23:57;102496.22;;;5.95;91.02
61119;BME280;51448;51.660;5.824;2023-03-04T08:26:31;102500.72;;;6.04;90.29
61119;BME280;51448;51.660;5.824;2023-03-04T08:29:03;102500.84;;;6.10;90.73
61119;BME280;51448;51.660;5.824;2023-03-04T08:31:32;102496.50;;;6.12;90.35
61119;BME280;51448;51.660;5.824;2023-03-04T08:34:02;102505.28;;;6.16;90.72
61119;BME280;51448;51.660;5.824;2023-03-04T08:36:30;102500.06;;;6.16;90.65
61119;BME280;51448;51.660;5.824;2023-03-04T08:38:57;102501.81;;;6.17;90.93
61119;BME280;51448;51.660;5.824;2023-03-04T08:41:25;102507.09;;;6.20;91.40
61119;BME280;51448;51.660;5.824;2023-03-04T08:43:53;102502.81;;;6.25;91.62
61119;BME280;51448;51.660;5.824;2023-03-04T08:46:21;102504.66;;;6.31;91.65
61119;BME280;51448;51.660;5.824;2023-03-04T08:48:49;102502.19;;;6.38;91.51
61119;BME280;51448;51.660;5.824;2023-03-04T08:51:16;102497.91;;;6.45;91.37
61119;BME280;51448;51.660;5.824;2023-03-04T08:53:44;102502.41;;;6.54;91.64
61119;BME280;51448;51.660;5.824;2023-03-04T08:56:13;102498.16;;;6.60;91.58
61119;BME280;51448;51.660;5.824;2023-03-04T08:58:41;102506.09;;;6.68;91.29
61119;BME280;51448;51.660;5.824;2023-03-04T09:01:11;102495.75;;;6.76;90.96
61119;BME280;51448;51.660;5.824;2023-03-04T09:03:40;102493.22;;;6.82;91.10
61119;BME280;51448;51.660;5.824;2023-03-04T09:06:11;102496.81;;;6.89;90.59
61119;BME280;51448;51.660;5.824;2023-03-04T09:08:42;102487.31;;;6.97;90.51
61119;BME280;51448;51.660;5.824;2023-03-04T09:11:11;102494.41;;;7.04;90.83
61119;BME280;51448;51.660;5.824;2023-03-04T09:13:39;102496.22;;;7.10;90.38
61119;BME280;51448;51.660;5.824;2023-03-04T09:16:11;102492.78;;;7.15;89.85
61119;BME280;51448;51.660;5.824;2023-03-04T09:18:41;102492.84;;;7.18;90.25
61119;BME280;51448;51.660;5.824;2023-03-04T09:21:09;102479.84;;;7.24;89.74
61119;BME280;51448;51.660;5.824;2023-03-04T09:23:37;102476.44;;;7.30;89.89
61119;BME280;51448;51.660;5.824;2023-03-04T09:26:21;102479.97;;;7.37;89.65
61119;BME280;51448;51.660;5.824;2023-03-04T09:28:53;102476.50;;;7.39;89.51
61119;BME280;51448;51.660;5.824;2023-03-04T09:31:26;102473.94;;;7.42;88.95
61119;BME280;51448;51.660;5.824;2023-03-04T09:33:56;102473.97;;;7.45;89.00
61119;BME280;51448;51.660;5.824;2023-03-04T09:36:25;102467.88;;;7.48;88.69
61119;BME280;51448;51.660;5.824;2023-03-04T09:38:53;102477.53;;;7.54;88.67
61119;BME280;51448;51.660;5.824;2023-03-04T09:41:24;102474.06;;;7.56;88.42
61119;BME280;51448;51.660;5.824;2023-03-04T09:43:55;102474.06;;;7.56;88.22
61119;BME280;51448;51.660;5.824;2023-03-04T09:46:33;102463.66;;;7.61;88.01
61119;BME280;51448;51.660;5.824;2023-03-04T09:49:05;102468.06;;;7.66;88.80
61119;BME280;51448;51.660;5.824;2023-03-04T10:03:10;102464.50;;;7.58;87.11
61119;BME280;51448;51.660;5.824;2023-03-04T10:05:45;102472.28;;;7.52;87.54
61119;BME280;51448;51.660;5.824;2023-03-04T10:09:03;102479.28;;;7.53;87.64
61119;BME280;51448;51.660;5.824;2023-03-04T10:11:44;102474.91;;;7.51;88.78
61119;BME280;51448;51.660;5.824;2023-03-04T10:25:27;102465.13;;;7.34;89.96
61119;BME280;51448;51.660;5.824;2023-03-04T10:28:03;102461.63;;;7.35;90.34
61119;BME280;51448;51.660;5.824;2023-03-04T10:33:27;102468.66;;;7.39;90.08
61119;BME280;51448;51.660;5.824;2023-03-04T10:38:38;102470.53;;;7.51;90.31
61119;BME280;51448;51.660;5.824;2023-03-04T10:41:17;102471.47;;;7.55;90.22
61119;BME280;51448;51.660;5.824;2023-03-04T10:43:50;102462.78;;;7.62;90.46
61119;BME280;51448;51.660;5.824;2023-03-04T10:46:48;102455.91;;;7.70;90.02
61119;BME280;51448;51.660;5.824;2023-03-04T10:49:18;102449.84;;;7.76;89.63
61119;BME280;51448;51.660;5.824;2023-03-04T10:52:14;102452.47;;;7.79;89.39
61119;BME280;51448;51.660;5.824;2023-03-04T10:54:54;102442.91;;;7.79;89.62
61119;BME280;51448;51.660;5.824;2023-03-04T10:57:36;102443.84;;;7.89;89.41
61119;BME280;51448;51.660;5.824;2023-03-04T11:02:47;102430.84;;;8.01;89.86
61119;BME280;51448;51.660;5.824;2023-03-04T11:07:52;102432.72;;;8.18;89.17
61119;BME280;51448;51.660;5.824;2023-03-04T11:13:21;102420.72;;;8.43;88.99
61119;BME280;51448;51.660;5.824;2023-03-04T11:15:52;102420.69;;;8.44;88.54
61119;BME280;51448;51.660;5.824;2023-03-04T11:20:57;102411.97;;;8.45;88.42
61119;BME280;51448;51.660;5.824;2023-03-04T11:23:33;102416.38;;;8.51;88.62
61119;BME280;51448;51.660;5.824;2023-03-04T11:26:18;102406.75;;;8.52;88.24
61119;BME280;51448;51.660;5.824;2023-03-04T11:28:53;102404.13;;;8.47;87.79
61119;BME280;51448;51.660;5.824;2023-03-04T11:31:35;102402.34;;;8.43;88.23
61119;BME280;51448;51.660;5.824;2023-03-04T11:37:50;102400.50;;;8.33;87.20
61119;BME280;51448;51.660;5.824;2023-03-04T11:40:42;102391.75;;;8.29;87.64
61119;BME280;51448;51.660;5.824;2023-03-04T11:43:44;102397.88;;;8.34;88.25
61119;BME280;51448;51.660;5.824;2023-03-04T11:55:03;102390.13;;;8.46;88.33
61119;BME280;51448;51.660;5.824;2023-03-04T12:03:26;102387.34;;;8.28;88.08
61119;BME280;51448;51.660;5.824;2023-03-04T12:06:17;102377.72;;;8.22;87.75
61119;BME280;51448;51.660;5.824;2023-03-04T12:17:40;102353.38;;;8.42;88.71
61119;BME280;51448;51.660;5.824;2023-03-04T12:23:25;102355.22;;;8.58;87.65
61119;BME280;51448;51.660;5.824;2023-03-04T12:26:32;102350.84;;;8.60;87.20
61119;BME280;51448;51.660;5.824;2023-03-04T12:29:21;102351.72;;;8.62;87.00
61119;BME280;51448;51.660;5.824;2023-03-04T12:35:40;102337.78;;;8.68;87.74
61119;BME280;51448;51.660;5.824;2023-03-04T12:44:41;102320.34;;;8.84;86.79
61119;BME280;51448;51.660;5.824;2023-03-04T12:47:32;102320.34;;;8.85;87.27
61119;BME280;51448;51.660;5.824;2023-03-04T12:53:19;102318.53;;;8.71;86.57
61119;BME280;51448;51.660;5.824;2023-03-04T12:55:49;102320.28;;;8.64;87.41
61119;BME280;51448;51.660;5.824;2023-03-04T12:58:23;102320.25;;;8.61;87.29
61119;BME280;51448;51.660;5.824;2023-03-04T13:12:22;102320.91;;;8.18;88.68
61119;BME280;51448;51.660;5.824;2023-03-04T13:15:15;102314.69;;;8.05;90.75
61119;BME280;51448;51.660;5.824;2023-03-04T13:17:54;102311.13;;;7.90;92.52
61119;BME280;51448;51.660;5.824;2023-03-04T13:38:22;102277.31;;;8.40;93.49
61119;BME280;51448;51.660;5.824;2023-03-04T13:44:54;102272.19;;;8.65;92.67
61119;BME280;51448;51.660;5.824;2023-03-04T13:47:42;102269.59;;;8.80;92.18
61119;BME280;51448;51.660;5.824;2023-03-04T13:50:22;102260.00;;;8.92;92.13
61119;BME280;51448;51.660;5.824;2023-03-04T13:53:20;102267.88;;;8.90;90.73
61119;BME280;51448;51.660;5.824;2023-03-04T13:56:11;102268.75;;;8.84;90.60
61119;BME280;51448;51.660;5.824;2023-03-04T13:58:50;102271.34;;;8.77;90.49
61119;BME280;51448;51.660;5.824;2023-03-04T14:01:29;102269.59;;;8.73;90.82
61119;BME280;51448;51.660;5.824;2023-03-04T14:03:59;102266.06;;;8.66;90.53
61119;BME280;51448;51.660;5.824;2023-03-04T14:06:41;102259.06;;;8.62;89.40
61119;BME280;51448;51.660;5.824;2023-03-04T14:09:18;102259.06;;;8.57;88.50
61119;BME280;51448;51.660;5.824;2023-03-04T14:11:50;102256.44;;;8.56;87.13
61119;BME280;51448;51.660;5.824;2023-03-04T14:14:25;102256.41;;;8.53;86.61
61119;BME280;51448;51.660;5.824;2023-03-04T14:17:02;102252.06;;;8.53;87.42
61119;BME280;51448;51.660;5.824;2023-03-04T14:19:37;102257.31;;;8.61;87.53
61119;BME280;51448;51.660;5.824;2023-03-04T14:22:28;102249.47;;;8.70;87.41
61119;BME280;51448;51.660;5.824;2023-03-04T14:27:46;102240.75;;;8.83;87.07
61119;BME280;51448;51.660;5.824;2023-03-04T14:30:23;102253.00;;;8.88;86.17
61119;BME280;51448;51.660;5.824;2023-03-04T14:33:14;102243.38;;;8.90;85.78
61119;BME280;51448;51.660;5.824;2023-03-04T14:35:46;102242.53;;;8.91;85.08
61119;BME280;51448;51.660;5.824;2023-03-04T14:38:27;102245.16;;;8.92;84.86
61119;BME280;51448;51.660;5.824;2023-03-04T14:41:05;102235.53;;;8.93;84.57
61119;BME280;51448;51.660;5.824;2023-03-04T14:43:56;102232.00;;;8.94;84.47
61119;BME280;51448;51.660;5.824;2023-03-04T14:46:48;102230.28;;;8.93;83.87
61119;BME280;51448;51.660;5.824;2023-03-04T14:49:34;102231.16;;;8.90;82.85
61119;BME280;51448;51.660;5.824;2023-03-04T14:52:04;102231.16;;;8.84;81.11
61119;BME280;51448;51.660;5.824;2023-03-04T14:55:27;102243.38;;;8.70;80.88
61119;BME280;51448;51.660;5.824;2023-03-04T14:58:18;102233.72;;;8.53;80.75
61119;BME280;51448;51.660;5.824;2023-03-04T15:00:48;102242.34;;;8.38;81.54
61119;BME280;51448;51.660;5.824;2023-03-04T15:04:04;102230.97;;;8.29;81.39
61119;BME280;51448;51.660;5.824;2023-03-04T15:06:37;102229.19;;;8.21;81.45
61119;BME280;51448;51.660;5.824;2023-03-04T15:09:23;102238.78;;;8.15;82.05
61119;BME280;51448;51.660;5.824;2023-03-04T15:12:00;102235.25;;;8.13;82.55
61119;BME280;51448;51.660;5.824;2023-03-04T15:14:51;102227.38;;;8.11;83.91
61119;BME280;51448;51.660;5.824;2023-03-04T15:25:19;102229.88;;;7.82;83.38
61119;BME280;51448;51.660;5.824;2023-03-04T15:27:48;102225.47;;;7.76;82.97
61119;BME280;51448;51.660;5.824;2023-03-04T15:30:19;102223.69;;;7.71;82.91